Lovetch, Bulgaria
Current Conditions -  °F | °C
As of 11:00 PM on Wednesday 28 Jan 2015 (Local Time) from LBGO Reporting Station
Haze Haze  
Wind Chill: 36°   Ceiling: 4900
Heat Index: 36°   Visibility: 2.5mi
Dew Point: 36°   Wind: 1mph
Humidity: 100%   Direction: 70°ENE
Pressure: 29.94"   Gusts: NA
Location:  43.13°N, 24.72°E
Report Text: LBGO 282000Z 07001KT 4100 BR FEW027 SCT039 OVC049 02/02 Q1014 R99/29//94 NOSIG
Loading
Personal Weather Stations






























Interactive Weather Map New forecast layout! Learn more

10-Day Weather Forecast

Advertisements
Track Severe Weather on mobile